sensor_id;sensor_type;location;lat;lon;timestamp;P1;durP1;ratioP1;P2;durP2;ratioP2
62990;SDS011;49084;48.204;16.202;2022-12-18T00:01:29;23.40;;;12.55;;
62990;SDS011;49084;48.204;16.202;2022-12-18T00:03:57;22.27;;;11.65;;
62990;SDS011;49084;48.204;16.202;2022-12-18T00:06:25;22.95;;;11.65;;
62990;SDS011;49084;48.204;16.202;2022-12-18T00:08:52;24.27;;;11.52;;
62990;SDS011;49084;48.204;16.202;2022-12-18T00:11:19;28.27;;;12.50;;
62990;SDS011;49084;48.204;16.202;2022-12-18T00:13:46;24.10;;;11.82;;
62990;SDS011;49084;48.204;16.202;2022-12-18T00:16:13;21.23;;;10.27;;
62990;SDS011;49084;48.204;16.202;2022-12-18T00:18:40;25.02;;;12.57;;
62990;SDS011;49084;48.204;16.202;2022-12-18T00:21:07;23.60;;;11.23;;
62990;SDS011;49084;48.204;16.202;2022-12-18T00:23:36;23.35;;;11.23;;
62990;SDS011;49084;48.204;16.202;2022-12-18T00:26:03;25.10;;;12.10;;
62990;SDS011;49084;48.204;16.202;2022-12-18T00:28:31;20.33;;;11.20;;
62990;SDS011;49084;48.204;16.202;2022-12-18T00:33:25;21.75;;;9.52;;
62990;SDS011;49084;48.204;16.202;2022-12-18T00:35:51;19.88;;;10.63;;
62990;SDS011;49084;48.204;16.202;2022-12-18T00:38:17;20.17;;;10.43;;
62990;SDS011;49084;48.204;16.202;2022-12-18T00:40:43;17.98;;;9.90;;
62990;SDS011;49084;48.204;16.202;2022-12-18T00:43:09;18.80;;;9.77;;
62990;SDS011;49084;48.204;16.202;2022-12-18T00:45:34;15.88;;;8.65;;
62990;SDS011;49084;48.204;16.202;2022-12-18T00:48:00;15.63;;;8.38;;
62990;SDS011;49084;48.204;16.202;2022-12-18T00:50:26;14.10;;;8.65;;
62990;SDS011;49084;48.204;16.202;2022-12-18T00:52:52;12.82;;;7.80;;
62990;SDS011;49084;48.204;16.202;2022-12-18T00:55:17;20.80;;;9.20;;
62990;SDS011;49084;48.204;16.202;2022-12-18T00:57:43;21.88;;;9.15;;
62990;SDS011;49084;48.204;16.202;2022-12-18T01:00:10;15.48;;;8.27;;
62990;SDS011;49084;48.204;16.202;2022-12-18T01:05:03;20.42;;;10.38;;
62990;SDS011;49084;48.204;16.202;2022-12-18T01:07:29;21.05;;;10.85;;
62990;SDS011;49084;48.204;16.202;2022-12-18T01:09:55;24.63;;;11.95;;
62990;SDS011;49084;48.204;16.202;2022-12-18T01:12:21;24.38;;;11.88;;
62990;SDS011;49084;48.204;16.202;2022-12-18T01:14:46;24.40;;;11.57;;
62990;SDS011;49084;48.204;16.202;2022-12-18T01:17:12;31.52;;;12.13;;
62990;SDS011;49084;48.204;16.202;2022-12-18T01:19:38;22.65;;;10.52;;
62990;SDS011;49084;48.204;16.202;2022-12-18T01:22:03;20.08;;;10.38;;
62990;SDS011;49084;48.204;16.202;2022-12-18T01:24:29;23.65;;;9.63;;
62990;SDS011;49084;48.204;16.202;2022-12-18T01:26:55;21.08;;;11.05;;
62990;SDS011;49084;48.204;16.202;2022-12-18T01:29:22;23.33;;;10.90;;
62990;SDS011;49084;48.204;16.202;2022-12-18T01:31:48;23.08;;;10.43;;
62990;SDS011;49084;48.204;16.202;2022-12-18T01:34:14;23.55;;;10.32;;
62990;SDS011;49084;48.204;16.202;2022-12-18T01:36:40;21.00;;;10.73;;
62990;SDS011;49084;48.204;16.202;2022-12-18T01:39:07;24.45;;;11.73;;
62990;SDS011;49084;48.204;16.202;2022-12-18T01:41:35;22.13;;;11.00;;
62990;SDS011;49084;48.204;16.202;2022-12-18T01:50:00;24.65;;;11.23;;
62990;SDS011;49084;48.204;16.202;2022-12-18T01:52:32;24.13;;;9.95;;
62990;SDS011;49084;48.204;16.202;2022-12-18T01:54:58;24.80;;;11.10;;
62990;SDS011;49084;48.204;16.202;2022-12-18T01:57:25;24.50;;;10.93;;
62990;SDS011;49084;48.204;16.202;2022-12-18T01:59:52;21.85;;;10.30;;
62990;SDS011;49084;48.204;16.202;2022-12-18T02:02:20;19.45;;;10.40;;
62990;SDS011;49084;48.204;16.202;2022-12-18T02:04:47;20.40;;;10.63;;
62990;SDS011;49084;48.204;16.202;2022-12-18T02:13:02;21.88;;;10.20;;
62990;SDS011;49084;48.204;16.202;2022-12-18T02:15:48;18.95;;;9.60;;
62990;SDS011;49084;48.204;16.202;2022-12-18T02:20:48;18.98;;;10.10;;
62990;SDS011;49084;48.204;16.202;2022-12-18T02:29:15;19.90;;;10.60;;
62990;SDS011;49084;48.204;16.202;2022-12-18T02:31:48;21.80;;;10.70;;
62990;SDS011;49084;48.204;16.202;2022-12-18T02:34:17;24.60;;;11.55;;
62990;SDS011;49084;48.204;16.202;2022-12-18T02:36:45;23.63;;;9.90;;
62990;SDS011;49084;48.204;16.202;2022-12-18T02:39:13;15.97;;;7.40;;
62990;SDS011;49084;48.204;16.202;2022-12-18T02:41:40;21.08;;;9.85;;
62990;SDS011;49084;48.204;16.202;2022-12-18T02:44:07;21.45;;;10.70;;
62990;SDS011;49084;48.204;16.202;2022-12-18T02:46:42;21.73;;;10.75;;
62990;SDS011;49084;48.204;16.202;2022-12-18T02:57:40;20.38;;;9.98;;
62990;SDS011;49084;48.204;16.202;2022-12-18T03:00:24;22.13;;;10.70;;
62990;SDS011;49084;48.204;16.202;2022-12-18T03:05:35;22.90;;;10.55;;
62990;SDS011;49084;48.204;16.202;2022-12-18T03:10:43;20.90;;;10.93;;
62990;SDS011;49084;48.204;16.202;2022-12-18T03:13:29;23.90;;;10.13;;
62990;SDS011;49084;48.204;16.202;2022-12-18T03:16:18;21.00;;;10.27;;
62990;SDS011;49084;48.204;16.202;2022-12-18T03:19:33;24.38;;;11.25;;
62990;SDS011;49084;48.204;16.202;2022-12-18T03:21:46;22.13;;;10.32;;
62990;SDS011;49084;48.204;16.202;2022-12-18T03:24:15;22.52;;;10.98;;
62990;SDS011;49084;48.204;16.202;2022-12-18T03:26:43;26.90;;;12.40;;
62990;SDS011;49084;48.204;16.202;2022-12-18T03:29:18;21.27;;;11.10;;
62990;SDS011;49084;48.204;16.202;2022-12-18T03:31:53;22.20;;;10.43;;
62990;SDS011;49084;48.204;16.202;2022-12-18T03:34:25;30.70;;;12.05;;
62990;SDS011;49084;48.204;16.202;2022-12-18T03:36:55;25.52;;;11.77;;
62990;SDS011;49084;48.204;16.202;2022-12-18T03:39:22;26.67;;;10.93;;
62990;SDS011;49084;48.204;16.202;2022-12-18T03:44:28;22.02;;;10.52;;
62990;SDS011;49084;48.204;16.202;2022-12-18T03:49:51;26.40;;;11.38;;
62990;SDS011;49084;48.204;16.202;2022-12-18T03:52:28;25.60;;;11.38;;
62990;SDS011;49084;48.204;16.202;2022-12-18T03:55:01;24.30;;;10.80;;
62990;SDS011;49084;48.204;16.202;2022-12-18T03:59:58;21.90;;;10.35;;
62990;SDS011;49084;48.204;16.202;2022-12-18T04:02:28;25.25;;;11.93;;
62990;SDS011;49084;48.204;16.202;2022-12-18T04:04:57;26.95;;;12.15;;
62990;SDS011;49084;48.204;16.202;2022-12-18T04:09:52;23.40;;;10.60;;
62990;SDS011;49084;48.204;16.202;2022-12-18T04:12:21;25.80;;;11.50;;
62990;SDS011;49084;48.204;16.202;2022-12-18T04:14:48;29.20;;;12.52;;
62990;SDS011;49084;48.204;16.202;2022-12-18T04:17:15;27.42;;;11.07;;
62990;SDS011;49084;48.204;16.202;2022-12-18T04:19:41;28.05;;;11.40;;
62990;SDS011;49084;48.204;16.202;2022-12-18T04:22:08;22.77;;;11.30;;
62990;SDS011;49084;48.204;16.202;2022-12-18T04:24:35;23.25;;;11.40;;
62990;SDS011;49084;48.204;16.202;2022-12-18T04:27:00;27.90;;;12.43;;
62990;SDS011;49084;48.204;16.202;2022-12-18T04:29:26;26.08;;;11.05;;
62990;SDS011;49084;48.204;16.202;2022-12-18T04:31:52;27.80;;;11.85;;
62990;SDS011;49084;48.204;16.202;2022-12-18T04:34:17;29.85;;;12.30;;
62990;SDS011;49084;48.204;16.202;2022-12-18T04:36:43;32.00;;;13.00;;
62990;SDS011;49084;48.204;16.202;2022-12-18T04:39:09;28.38;;;11.07;;
62990;SDS011;49084;48.204;16.202;2022-12-18T04:41:34;27.98;;;12.23;;
62990;SDS011;49084;48.204;16.202;2022-12-18T04:44:00;29.77;;;12.50;;
62990;SDS011;49084;48.204;16.202;2022-12-18T04:46:26;31.13;;;12.60;;
62990;SDS011;49084;48.204;16.202;2022-12-18T04:48:52;34.78;;;13.30;;
62990;SDS011;49084;48.204;16.202;2022-12-18T04:51:17;33.78;;;12.70;;
62990;SDS011;49084;48.204;16.202;2022-12-18T04:53:43;31.85;;;12.90;;
62990;SDS011;49084;48.204;16.202;2022-12-18T04:56:10;31.42;;;12.60;;
62990;SDS011;49084;48.204;16.202;2022-12-18T04:58:38;26.60;;;12.45;;
62990;SDS011;49084;48.204;16.202;2022-12-18T05:01:05;28.75;;;14.40;;
62990;SDS011;49084;48.204;16.202;2022-12-18T05:03:32;33.80;;;14.38;;
62990;SDS011;49084;48.204;16.202;2022-12-18T05:05:59;30.80;;;14.00;;
62990;SDS011;49084;48.204;16.202;2022-12-18T05:08:24;29.38;;;13.63;;
62990;SDS011;49084;48.204;16.202;2022-12-18T05:10:57;32.40;;;13.07;;
62990;SDS011;49084;48.204;16.202;2022-12-18T05:13:34;37.17;;;13.45;;
62990;SDS011;49084;48.204;16.202;2022-12-18T05:16:00;33.60;;;13.25;;
62990;SDS011;49084;48.204;16.202;2022-12-18T05:18:27;26.55;;;11.75;;
62990;SDS011;49084;48.204;16.202;2022-12-18T05:20:53;30.73;;;12.82;;
62990;SDS011;49084;48.204;16.202;2022-12-18T05:23:20;28.55;;;11.57;;
62990;SDS011;49084;48.204;16.202;2022-12-18T05:25:50;26.38;;;11.82;;
62990;SDS011;49084;48.204;16.202;2022-12-18T05:28:27;33.42;;;13.63;;
62990;SDS011;49084;48.204;16.202;2022-12-18T05:30:55;29.88;;;13.27;;
62990;SDS011;49084;48.204;16.202;2022-12-18T05:35:53;30.70;;;13.18;;
62990;SDS011;49084;48.204;16.202;2022-12-18T05:38:20;34.28;;;13.60;;
62990;SDS011;49084;48.204;16.202;2022-12-18T05:40:47;30.33;;;12.85;;
62990;SDS011;49084;48.204;16.202;2022-12-18T05:43:14;34.40;;;13.30;;
62990;SDS011;49084;48.204;16.202;2022-12-18T05:45:40;34.00;;;13.00;;
62990;SDS011;49084;48.204;16.202;2022-12-18T05:48:06;32.92;;;14.48;;
62990;SDS011;49084;48.204;16.202;2022-12-18T05:50:36;31.58;;;13.35;;
62990;SDS011;49084;48.204;16.202;2022-12-18T05:53:03;34.53;;;13.60;;
62990;SDS011;49084;48.204;16.202;2022-12-18T05:55:32;35.55;;;13.20;;
62990;SDS011;49084;48.204;16.202;2022-12-18T05:57:58;33.80;;;13.20;;
62990;SDS011;49084;48.204;16.202;2022-12-18T06:00:24;34.03;;;12.60;;
62990;SDS011;49084;48.204;16.202;2022-12-18T06:02:50;27.80;;;12.35;;
62990;SDS011;49084;48.204;16.202;2022-12-18T06:05:15;30.35;;;13.68;;
62990;SDS011;49084;48.204;16.202;2022-12-18T06:07:41;31.00;;;12.88;;
62990;SDS011;49084;48.204;16.202;2022-12-18T06:10:07;32.47;;;13.43;;
62990;SDS011;49084;48.204;16.202;2022-12-18T06:12:32;35.28;;;13.50;;
62990;SDS011;49084;48.204;16.202;2022-12-18T06:14:58;28.60;;;13.30;;
62990;SDS011;49084;48.204;16.202;2022-12-18T06:17:31;32.00;;;12.45;;
62990;SDS011;49084;48.204;16.202;2022-12-18T06:19:57;30.45;;;13.27;;
62990;SDS011;49084;48.204;16.202;2022-12-18T06:22:23;31.60;;;13.13;;
62990;SDS011;49084;48.204;16.202;2022-12-18T06:24:50;35.05;;;13.88;;
62990;SDS011;49084;48.204;16.202;2022-12-18T06:27:15;28.85;;;13.75;;
62990;SDS011;49084;48.204;16.202;2022-12-18T06:29:41;29.20;;;13.18;;
62990;SDS011;49084;48.204;16.202;2022-12-18T06:32:07;29.35;;;13.77;;
62990;SDS011;49084;48.204;16.202;2022-12-18T06:34:33;32.05;;;14.10;;
62990;SDS011;49084;48.204;16.202;2022-12-18T06:36:59;30.23;;;12.82;;
62990;SDS011;49084;48.204;16.202;2022-12-18T06:39:26;30.33;;;12.80;;
62990;SDS011;49084;48.204;16.202;2022-12-18T06:41:52;30.27;;;13.73;;
62990;SDS011;49084;48.204;16.202;2022-12-18T06:44:18;35.90;;;13.32;;
62990;SDS011;49084;48.204;16.202;2022-12-18T06:46:44;34.22;;;13.88;;
62990;SDS011;49084;48.204;16.202;2022-12-18T06:49:10;25.42;;;12.40;;
62990;SDS011;49084;48.204;16.202;2022-12-18T06:51:36;30.83;;;13.30;;
62990;SDS011;49084;48.204;16.202;2022-12-18T06:54:01;28.80;;;12.98;;
62990;SDS011;49084;48.204;16.202;2022-12-18T06:56:27;34.95;;;13.82;;
62990;SDS011;49084;48.204;16.202;2022-12-18T06:58:53;29.08;;;14.02;;
62990;SDS011;49084;48.204;16.202;2022-12-18T07:01:20;32.17;;;14.15;;
62990;SDS011;49084;48.204;16.202;2022-12-18T07:03:46;27.85;;;12.90;;
62990;SDS011;49084;48.204;16.202;2022-12-18T07:06:17;29.70;;;13.15;;
62990;SDS011;49084;48.204;16.202;2022-12-18T07:08:44;32.47;;;12.57;;
62990;SDS011;49084;48.204;16.202;2022-12-18T07:11:11;30.52;;;12.63;;
62990;SDS011;49084;48.204;16.202;2022-12-18T07:13:37;31.05;;;15.50;;
62990;SDS011;49084;48.204;16.202;2022-12-18T07:16:06;36.40;;;14.63;;
62990;SDS011;49084;48.204;16.202;2022-12-18T07:18:32;34.45;;;14.00;;
62990;SDS011;49084;48.204;16.202;2022-12-18T07:20:57;37.95;;;15.57;;
62990;SDS011;49084;48.204;16.202;2022-12-18T07:23:26;34.78;;;15.25;;
62990;SDS011;49084;48.204;16.202;2022-12-18T07:25:52;36.28;;;14.65;;
62990;SDS011;49084;48.204;16.202;2022-12-18T07:28:18;30.48;;;15.02;;
62990;SDS011;49084;48.204;16.202;2022-12-18T07:30:43;30.92;;;14.30;;
62990;SDS011;49084;48.204;16.202;2022-12-18T07:33:09;31.08;;;12.90;;
62990;SDS011;49084;48.204;16.202;2022-12-18T07:35:34;32.33;;;14.32;;
62990;SDS011;49084;48.204;16.202;2022-12-18T07:38:00;30.17;;;13.63;;
62990;SDS011;49084;48.204;16.202;2022-12-18T07:40:26;27.70;;;11.80;;
62990;SDS011;49084;48.204;16.202;2022-12-18T07:42:51;37.92;;;14.73;;
62990;SDS011;49084;48.204;16.202;2022-12-18T07:45:17;33.10;;;14.20;;
62990;SDS011;49084;48.204;16.202;2022-12-18T07:47:43;29.27;;;13.50;;
62990;SDS011;49084;48.204;16.202;2022-12-18T07:50:08;33.63;;;13.10;;
62990;SDS011;49084;48.204;16.202;2022-12-18T07:52:34;30.50;;;13.10;;
62990;SDS011;49084;48.204;16.202;2022-12-18T07:55:00;39.65;;;14.02;;
62990;SDS011;49084;48.204;16.202;2022-12-18T07:57:25;41.20;;;15.35;;
62990;SDS011;49084;48.204;16.202;2022-12-18T07:59:51;33.47;;;15.02;;
62990;SDS011;49084;48.204;16.202;2022-12-18T08:02:16;30.25;;;14.23;;
62990;SDS011;49084;48.204;16.202;2022-12-18T08:04:42;37.65;;;12.98;;
62990;SDS011;49084;48.204;16.202;2022-12-18T08:07:08;38.75;;;14.88;;
62990;SDS011;49084;48.204;16.202;2022-12-18T08:09:34;33.40;;;14.27;;
62990;SDS011;49084;48.204;16.202;2022-12-18T08:11:59;30.08;;;14.15;;
62990;SDS011;49084;48.204;16.202;2022-12-18T08:14:25;32.50;;;14.15;;
62990;SDS011;49084;48.204;16.202;2022-12-18T08:16:51;39.40;;;15.55;;
62990;SDS011;49084;48.204;16.202;2022-12-18T08:19:17;40.10;;;14.52;;
62990;SDS011;49084;48.204;16.202;2022-12-18T08:21:42;33.30;;;14.38;;
62990;SDS011;49084;48.204;16.202;2022-12-18T08:24:08;35.60;;;14.95;;
62990;SDS011;49084;48.204;16.202;2022-12-18T08:26:35;33.22;;;14.38;;
62990;SDS011;49084;48.204;16.202;2022-12-18T08:29:01;37.95;;;16.55;;
62990;SDS011;49084;48.204;16.202;2022-12-18T08:31:27;38.00;;;14.90;;
62990;SDS011;49084;48.204;16.202;2022-12-18T08:33:54;36.00;;;14.52;;
62990;SDS011;49084;48.204;16.202;2022-12-18T08:36:21;29.77;;;14.02;;
62990;SDS011;49084;48.204;16.202;2022-12-18T08:38:47;31.85;;;13.90;;
62990;SDS011;49084;48.204;16.202;2022-12-18T08:41:14;28.15;;;13.10;;
62990;SDS011;49084;48.204;16.202;2022-12-18T08:43:41;26.63;;;12.53;;
62990;SDS011;49084;48.204;16.202;2022-12-18T08:46:26;28.00;;;12.77;;
62990;SDS011;49084;48.204;16.202;2022-12-18T08:48:56;26.27;;;13.10;;
62990;SDS011;49084;48.204;16.202;2022-12-18T08:51:21;28.63;;;13.05;;
62990;SDS011;49084;48.204;16.202;2022-12-18T08:53:47;27.55;;;14.50;;
62990;SDS011;49084;48.204;16.202;2022-12-18T08:56:13;28.58;;;13.77;;
62990;SDS011;49084;48.204;16.202;2022-12-18T08:58:39;28.55;;;12.63;;
62990;SDS011;49084;48.204;16.202;2022-12-18T09:01:06;31.95;;;14.30;;
62990;SDS011;49084;48.204;16.202;2022-12-18T09:03:37;27.40;;;13.85;;
62990;SDS011;49084;48.204;16.202;2022-12-18T09:06:03;26.65;;;13.80;;
62990;SDS011;49084;48.204;16.202;2022-12-18T09:08:29;29.40;;;14.13;;
62990;SDS011;49084;48.204;16.202;2022-12-18T09:10:55;33.83;;;14.52;;
62990;SDS011;49084;48.204;16.202;2022-12-18T09:13:21;29.52;;;14.15;;
62990;SDS011;49084;48.204;16.202;2022-12-18T09:15:49;28.85;;;13.82;;
62990;SDS011;49084;48.204;16.202;2022-12-18T09:18:18;30.58;;;13.70;;
62990;SDS011;49084;48.204;16.202;2022-12-18T09:20:45;34.45;;;16.67;;
62990;SDS011;49084;48.204;16.202;2022-12-18T09:23:11;34.30;;;14.82;;
62990;SDS011;49084;48.204;16.202;2022-12-18T09:25:38;30.08;;;15.45;;
62990;SDS011;49084;48.204;16.202;2022-12-18T09:28:16;30.52;;;15.40;;
62990;SDS011;49084;48.204;16.202;2022-12-18T09:33:10;29.42;;;14.52;;
62990;SDS011;49084;48.204;16.202;2022-12-18T09:35:36;34.50;;;15.95;;
62990;SDS011;49084;48.204;16.202;2022-12-18T09:38:02;36.65;;;17.15;;
62990;SDS011;49084;48.204;16.202;2022-12-18T09:40:28;35.05;;;16.17;;
62990;SDS011;49084;48.204;16.202;2022-12-18T09:43:00;31.00;;;15.85;;
62990;SDS011;49084;48.204;16.202;2022-12-18T09:45:41;40.90;;;17.85;;
62990;SDS011;49084;48.204;16.202;2022-12-18T09:50:59;32.13;;;14.60;;
62990;SDS011;49084;48.204;16.202;2022-12-18T09:53:30;43.28;;;18.77;;
62990;SDS011;49084;48.204;16.202;2022-12-18T09:55:59;41.30;;;18.50;;
62990;SDS011;49084;48.204;16.202;2022-12-18T09:58:28;41.22;;;18.88;;
62990;SDS011;49084;48.204;16.202;2022-12-18T10:01:09;40.70;;;18.98;;
62990;SDS011;49084;48.204;16.202;2022-12-18T10:03:36;42.42;;;19.52;;
62990;SDS011;49084;48.204;16.202;2022-12-18T10:19:43;46.60;;;19.98;;
62990;SDS011;49084;48.204;16.202;2022-12-18T10:22:36;41.53;;;19.58;;
62990;SDS011;49084;48.204;16.202;2022-12-18T10:25:34;50.10;;;21.95;;
62990;SDS011;49084;48.204;16.202;2022-12-18T10:28:15;43.92;;;21.30;;
62990;SDS011;49084;48.204;16.202;2022-12-18T10:30:43;44.95;;;20.88;;
62990;SDS011;49084;48.204;16.202;2022-12-18T10:33:19;51.63;;;21.77;;
62990;SDS011;49084;48.204;16.202;2022-12-18T10:35:48;52.67;;;23.43;;
62990;SDS011;49084;48.204;16.202;2022-12-18T10:43:33;49.17;;;22.23;;
62990;SDS011;49084;48.204;16.202;2022-12-18T10:48:33;48.63;;;21.25;;
62990;SDS011;49084;48.204;16.202;2022-12-18T10:51:34;53.42;;;23.27;;
62990;SDS011;49084;48.204;16.202;2022-12-18T10:54:05;48.17;;;21.95;;
62990;SDS011;49084;48.204;16.202;2022-12-18T10:56:32;46.03;;;20.63;;
62990;SDS011;49084;48.204;16.202;2022-12-18T10:59:00;37.67;;;16.02;;
62990;SDS011;49084;48.204;16.202;2022-12-18T11:04:22;48.28;;;21.23;;
62990;SDS011;49084;48.204;16.202;2022-12-18T11:09:32;45.22;;;20.63;;
62990;SDS011;49084;48.204;16.202;2022-12-18T11:12:03;48.35;;;21.77;;
62990;SDS011;49084;48.204;16.202;2022-12-18T11:20:06;44.00;;;20.15;;
62990;SDS011;49084;48.204;16.202;2022-12-18T11:23:20;47.15;;;20.83;;
62990;SDS011;49084;48.204;16.202;2022-12-18T11:25:51;47.30;;;21.38;;
62990;SDS011;49084;48.204;16.202;2022-12-18T11:28:27;52.58;;;22.17;;
62990;SDS011;49084;48.204;16.202;2022-12-18T11:31:15;50.97;;;21.25;;
62990;SDS011;49084;48.204;16.202;2022-12-18T11:33:54;48.75;;;20.52;;
62990;SDS011;49084;48.204;16.202;2022-12-18T11:36:35;47.90;;;20.85;;
62990;SDS011;49084;48.204;16.202;2022-12-18T11:39:50;46.78;;;19.88;;
62990;SDS011;49084;48.204;16.202;2022-12-18T11:47:44;47.83;;;20.02;;
62990;SDS011;49084;48.204;16.202;2022-12-18T11:50:16;40.22;;;19.05;;
62990;SDS011;49084;48.204;16.202;2022-12-18T11:53:01;38.45;;;17.27;;
62990;SDS011;49084;48.204;16.202;2022-12-18T12:00:40;45.08;;;17.60;;
62990;SDS011;49084;48.204;16.202;2022-12-18T12:11:50;43.20;;;17.73;;
62990;SDS011;49084;48.204;16.202;2022-12-18T12:25:03;49.63;;;20.85;;
62990;SDS011;49084;48.204;16.202;2022-12-18T12:33:04;50.00;;;18.90;;
62990;SDS011;49084;48.204;16.202;2022-12-18T12:40:49;64.55;;;28.38;;
62990;SDS011;49084;48.204;16.202;2022-12-18T12:43:32;53.70;;;22.50;;
62990;SDS011;49084;48.204;16.202;2022-12-18T12:46:04;46.00;;;20.73;;
62990;SDS011;49084;48.204;16.202;2022-12-18T12:53:49;91.53;;;35.88;;
62990;SDS011;49084;48.204;16.202;2022-12-18T12:56:17;46.38;;;20.10;;
62990;SDS011;49084;48.204;16.202;2022-12-18T13:01:43;42.47;;;19.23;;
62990;SDS011;49084;48.204;16.202;2022-12-18T13:07:12;47.55;;;20.77;;
62990;SDS011;49084;48.204;16.202;2022-12-18T13:12:57;40.28;;;17.45;;
62990;SDS011;49084;48.204;16.202;2022-12-18T13:20:44;33.90;;;15.23;;
62990;SDS011;49084;48.204;16.202;2022-12-18T13:25:51;40.10;;;16.85;;
62990;SDS011;49084;48.204;16.202;2022-12-18T13:30:59;50.35;;;19.20;;
62990;SDS011;49084;48.204;16.202;2022-12-18T13:36:01;31.20;;;13.70;;
62990;SDS011;49084;48.204;16.202;2022-12-18T13:38:41;44.40;;;18.33;;
62990;SDS011;49084;48.204;16.202;2022-12-18T13:43:46;55.67;;;20.80;;
62990;SDS011;49084;48.204;16.202;2022-12-18T13:49:01;48.63;;;21.08;;
62990;SDS011;49084;48.204;16.202;2022-12-18T13:51:39;51.50;;;20.90;;
62990;SDS011;49084;48.204;16.202;2022-12-18T13:56:44;52.72;;;20.15;;
62990;SDS011;49084;48.204;16.202;2022-12-18T14:01:47;54.63;;;20.52;;
62990;SDS011;49084;48.204;16.202;2022-12-18T14:04:25;39.80;;;16.15;;
62990;SDS011;49084;48.204;16.202;2022-12-18T14:09:45;50.10;;;20.55;;
62990;SDS011;49084;48.204;16.202;2022-12-18T14:12:17;48.75;;;20.35;;
62990;SDS011;49084;48.204;16.202;2022-12-18T14:15:05;44.42;;;20.45;;
62990;SDS011;49084;48.204;16.202;2022-12-18T14:17:42;51.55;;;19.60;;
62990;SDS011;49084;48.204;16.202;2022-12-18T14:20:12;51.33;;;20.75;;
62990;SDS011;49084;48.204;16.202;2022-12-18T14:22:42;45.10;;;19.30;;
62990;SDS011;49084;48.204;16.202;2022-12-18T14:30:36;48.55;;;20.90;;
62990;SDS011;49084;48.204;16.202;2022-12-18T14:35:30;59.00;;;21.42;;
62990;SDS011;49084;48.204;16.202;2022-12-18T14:40:46;52.95;;;23.52;;
62990;SDS011;49084;48.204;16.202;2022-12-18T14:43:12;57.83;;;27.40;;
62990;SDS011;49084;48.204;16.202;2022-12-18T14:45:39;52.60;;;25.63;;
62990;SDS011;49084;48.204;16.202;2022-12-18T14:50:34;53.45;;;24.63;;
62990;SDS011;49084;48.204;16.202;2022-12-18T14:53:00;57.05;;;22.42;;
62990;SDS011;49084;48.204;16.202;2022-12-18T14:55:26;46.00;;;20.58;;
62990;SDS011;49084;48.204;16.202;2022-12-18T14:57:52;61.38;;;25.48;;
62990;SDS011;49084;48.204;16.202;2022-12-18T15:00:21;54.70;;;23.88;;
62990;SDS011;49084;48.204;16.202;2022-12-18T15:02:53;47.70;;;21.58;;
62990;SDS011;49084;48.204;16.202;2022-12-18T15:05:28;51.78;;;21.38;;
62990;SDS011;49084;48.204;16.202;2022-12-18T15:07:56;56.47;;;22.38;;
62990;SDS011;49084;48.204;16.202;2022-12-18T15:20:43;55.78;;;23.05;;
62990;SDS011;49084;48.204;16.202;2022-12-18T15:23:32;55.28;;;24.80;;
62990;SDS011;49084;48.204;16.202;2022-12-18T15:26:07;61.95;;;26.48;;
62990;SDS011;49084;48.204;16.202;2022-12-18T15:33:39;63.53;;;24.13;;
62990;SDS011;49084;48.204;16.202;2022-12-18T15:36:12;55.60;;;23.05;;
62990;SDS011;49084;48.204;16.202;2022-12-18T15:38:40;56.53;;;23.13;;
62990;SDS011;49084;48.204;16.202;2022-12-18T15:41:18;61.38;;;24.02;;
62990;SDS011;49084;48.204;16.202;2022-12-18T15:43:48;70.25;;;25.35;;
62990;SDS011;49084;48.204;16.202;2022-12-18T15:46:16;60.40;;;23.70;;
62990;SDS011;49084;48.204;16.202;2022-12-18T15:51:15;60.33;;;24.05;;
62990;SDS011;49084;48.204;16.202;2022-12-18T15:53:41;56.22;;;23.48;;
62990;SDS011;49084;48.204;16.202;2022-12-18T15:56:11;65.35;;;26.02;;
62990;SDS011;49084;48.204;16.202;2022-12-18T15:58:57;64.07;;;24.40;;
62990;SDS011;49084;48.204;16.202;2022-12-18T16:01:24;71.35;;;27.27;;
62990;SDS011;49084;48.204;16.202;2022-12-18T16:03:54;70.15;;;27.42;;
62990;SDS011;49084;48.204;16.202;2022-12-18T16:06:23;67.55;;;26.85;;
62990;SDS011;49084;48.204;16.202;2022-12-18T16:08:49;65.80;;;25.67;;
62990;SDS011;49084;48.204;16.202;2022-12-18T16:11:25;80.88;;;31.10;;
62990;SDS011;49084;48.204;16.202;2022-12-18T16:14:07;73.80;;;28.92;;
62990;SDS011;49084;48.204;16.202;2022-12-18T16:16:49;66.75;;;26.65;;
62990;SDS011;49084;48.204;16.202;2022-12-18T16:19:17;69.38;;;26.35;;
62990;SDS011;49084;48.204;16.202;2022-12-18T16:21:44;76.15;;;26.52;;
62990;SDS011;49084;48.204;16.202;2022-12-18T16:24:18;68.93;;;27.58;;
62990;SDS011;49084;48.204;16.202;2022-12-18T16:26:49;71.47;;;27.33;;
62990;SDS011;49084;48.204;16.202;2022-12-18T16:29:16;71.85;;;27.17;;
62990;SDS011;49084;48.204;16.202;2022-12-18T16:31:47;72.68;;;26.88;;
62990;SDS011;49084;48.204;16.202;2022-12-18T16:34:14;68.53;;;27.35;;
62990;SDS011;49084;48.204;16.202;2022-12-18T16:36:47;66.70;;;25.38;;
62990;SDS011;49084;48.204;16.202;2022-12-18T16:39:15;76.65;;;29.23;;
62990;SDS011;49084;48.204;16.202;2022-12-18T16:41:42;61.25;;;25.33;;
62990;SDS011;49084;48.204;16.202;2022-12-18T16:44:08;66.45;;;25.58;;
62990;SDS011;49084;48.204;16.202;2022-12-18T16:46:35;64.85;;;25.95;;
62990;SDS011;49084;48.204;16.202;2022-12-18T16:49:02;68.32;;;25.27;;
62990;SDS011;49084;48.204;16.202;2022-12-18T16:51:31;58.30;;;26.35;;
62990;SDS011;49084;48.204;16.202;2022-12-18T16:53:59;65.70;;;27.90;;
62990;SDS011;49084;48.204;16.202;2022-12-18T16:56:26;70.40;;;25.98;;
62990;SDS011;49084;48.204;16.202;2022-12-18T16:58:53;71.93;;;26.33;;
62990;SDS011;49084;48.204;16.202;2022-12-18T17:01:22;72.07;;;28.33;;
62990;SDS011;49084;48.204;16.202;2022-12-18T17:03:53;63.22;;;25.83;;
62990;SDS011;49084;48.204;16.202;2022-12-18T17:06:26;62.35;;;25.63;;
62990;SDS011;49084;48.204;16.202;2022-12-18T17:08:57;59.85;;;25.00;;
62990;SDS011;49084;48.204;16.202;2022-12-18T17:11:25;69.05;;;25.13;;
62990;SDS011;49084;48.204;16.202;2022-12-18T17:13:51;55.83;;;24.92;;
62990;SDS011;49084;48.204;16.202;2022-12-18T17:16:18;62.80;;;25.08;;
62990;SDS011;49084;48.204;16.202;2022-12-18T17:18:44;56.08;;;23.73;;
62990;SDS011;49084;48.204;16.202;2022-12-18T17:21:11;58.72;;;23.20;;
62990;SDS011;49084;48.204;16.202;2022-12-18T17:23:39;55.90;;;24.30;;
62990;SDS011;49084;48.204;16.202;2022-12-18T17:26:06;59.47;;;24.90;;
62990;SDS011;49084;48.204;16.202;2022-12-18T17:28:35;52.25;;;23.00;;
62990;SDS011;49084;48.204;16.202;2022-12-18T17:31:02;52.13;;;22.75;;
62990;SDS011;49084;48.204;16.202;2022-12-18T17:33:40;49.75;;;23.10;;
62990;SDS011;49084;48.204;16.202;2022-12-18T17:36:07;50.65;;;20.85;;
62990;SDS011;49084;48.204;16.202;2022-12-18T17:38:34;51.38;;;22.23;;
62990;SDS011;49084;48.204;16.202;2022-12-18T17:41:04;47.20;;;18.92;;
62990;SDS011;49084;48.204;16.202;2022-12-18T17:43:31;51.00;;;21.02;;